sensor_id;sensor_type;location;lat;lon;timestamp;P1;durP1;ratioP1;P2;durP2;ratioP2
7961;SDS011;4026;43.652;24.906;2024-01-16T00:00:41;1.60;;;1.50;;
7961;SDS011;4026;43.652;24.906;2024-01-16T00:03:09;2.13;;;1.70;;
7961;SDS011;4026;43.652;24.906;2024-01-16T00:05:36;5.87;;;2.33;;
7961;SDS011;4026;43.652;24.906;2024-01-16T00:08:03;1.80;;;1.27;;
7961;SDS011;4026;43.652;24.906;2024-01-16T00:10:30;3.87;;;2.63;;
7961;SDS011;4026;43.652;24.906;2024-01-16T00:12:57;5.50;;;3.00;;
7961;SDS011;4026;43.652;24.906;2024-01-16T00:15:23;2.90;;;2.13;;
7961;SDS011;4026;43.652;24.906;2024-01-16T00:17:50;7.70;;;3.33;;
7961;SDS011;4026;43.652;24.906;2024-01-16T00:20:19;4.00;;;2.23;;
7961;SDS011;4026;43.652;24.906;2024-01-16T00:22:48;4.10;;;2.67;;
7961;SDS011;4026;43.652;24.906;2024-01-16T00:25:15;3.40;;;2.67;;
7961;SDS011;4026;43.652;24.906;2024-01-16T00:27:44;4.40;;;2.47;;
7961;SDS011;4026;43.652;24.906;2024-01-16T00:30:11;2.37;;;2.07;;
7961;SDS011;4026;43.652;24.906;2024-01-16T00:32:39;2.63;;;2.20;;
7961;SDS011;4026;43.652;24.906;2024-01-16T00:35:06;2.97;;;2.17;;
7961;SDS011;4026;43.652;24.906;2024-01-16T00:37:35;4.47;;;2.57;;
7961;SDS011;4026;43.652;24.906;2024-01-16T00:40:02;3.27;;;1.70;;
7961;SDS011;4026;43.652;24.906;2024-01-16T00:42:30;4.57;;;3.03;;
7961;SDS011;4026;43.652;24.906;2024-01-16T00:44:57;4.00;;;2.40;;
7961;SDS011;4026;43.652;24.906;2024-01-16T00:47:24;2.93;;;2.37;;
7961;SDS011;4026;43.652;24.906;2024-01-16T00:49:51;5.50;;;2.97;;
7961;SDS011;4026;43.652;24.906;2024-01-16T00:52:18;5.53;;;3.37;;
7961;SDS011;4026;43.652;24.906;2024-01-16T00:54:46;9.67;;;2.83;;
7961;SDS011;4026;43.652;24.906;2024-01-16T00:57:13;6.37;;;3.33;;
7961;SDS011;4026;43.652;24.906;2024-01-16T00:59:41;7.00;;;2.40;;
7961;SDS011;4026;43.652;24.906;2024-01-16T01:02:08;4.47;;;2.47;;
7961;SDS011;4026;43.652;24.906;2024-01-16T01:04:37;3.57;;;2.43;;
7961;SDS011;4026;43.652;24.906;2024-01-16T01:07:03;3.87;;;3.00;;
7961;SDS011;4026;43.652;24.906;2024-01-16T01:09:32;5.73;;;2.73;;
7961;SDS011;4026;43.652;24.906;2024-01-16T01:12:00;3.93;;;2.60;;
7961;SDS011;4026;43.652;24.906;2024-01-16T01:14:27;5.23;;;3.13;;
7961;SDS011;4026;43.652;24.906;2024-01-16T01:16:55;5.97;;;3.27;;
7961;SDS011;4026;43.652;24.906;2024-01-16T01:19:21;5.40;;;3.70;;
7961;SDS011;4026;43.652;24.906;2024-01-16T01:21:48;3.53;;;3.07;;
7961;SDS011;4026;43.652;24.906;2024-01-16T01:24:15;7.57;;;4.03;;
7961;SDS011;4026;43.652;24.906;2024-01-16T01:26:42;5.30;;;3.30;;
7961;SDS011;4026;43.652;24.906;2024-01-16T01:29:11;5.07;;;3.23;;
7961;SDS011;4026;43.652;24.906;2024-01-16T01:31:37;5.97;;;4.40;;
7961;SDS011;4026;43.652;24.906;2024-01-16T01:34:04;4.63;;;2.80;;
7961;SDS011;4026;43.652;24.906;2024-01-16T01:36:32;7.97;;;3.10;;
7961;SDS011;4026;43.652;24.906;2024-01-16T01:38:59;6.43;;;3.70;;
7961;SDS011;4026;43.652;24.906;2024-01-16T01:41:26;6.63;;;3.27;;
7961;SDS011;4026;43.652;24.906;2024-01-16T01:43:52;4.57;;;3.00;;
7961;SDS011;4026;43.652;24.906;2024-01-16T01:46:21;7.53;;;2.97;;
7961;SDS011;4026;43.652;24.906;2024-01-16T01:48:48;4.97;;;2.63;;
7961;SDS011;4026;43.652;24.906;2024-01-16T01:51:17;2.60;;;2.23;;
7961;SDS011;4026;43.652;24.906;2024-01-16T01:53:45;3.93;;;2.90;;
7961;SDS011;4026;43.652;24.906;2024-01-16T01:56:15;6.77;;;4.33;;
7961;SDS011;4026;43.652;24.906;2024-01-16T01:58:45;5.60;;;3.67;;
7961;SDS011;4026;43.652;24.906;2024-01-16T02:01:13;6.93;;;3.63;;
7961;SDS011;4026;43.652;24.906;2024-01-16T02:03:44;8.73;;;4.73;;
7961;SDS011;4026;43.652;24.906;2024-01-16T02:06:12;6.33;;;4.43;;
7961;SDS011;4026;43.652;24.906;2024-01-16T02:08:40;7.63;;;4.37;;
7961;SDS011;4026;43.652;24.906;2024-01-16T02:11:07;9.23;;;4.23;;
7961;SDS011;4026;43.652;24.906;2024-01-16T02:13:34;5.53;;;4.13;;
7961;SDS011;4026;43.652;24.906;2024-01-16T02:16:01;8.00;;;4.30;;
7961;SDS011;4026;43.652;24.906;2024-01-16T02:18:29;12.63;;;4.77;;
7961;SDS011;4026;43.652;24.906;2024-01-16T02:20:58;4.63;;;3.73;;
7961;SDS011;4026;43.652;24.906;2024-01-16T02:23:28;9.73;;;4.93;;
7961;SDS011;4026;43.652;24.906;2024-01-16T02:25:56;7.03;;;4.73;;
7961;SDS011;4026;43.652;24.906;2024-01-16T02:28:23;7.07;;;4.40;;
7961;SDS011;4026;43.652;24.906;2024-01-16T02:30:50;11.00;;;5.47;;
7961;SDS011;4026;43.652;24.906;2024-01-16T02:33:16;7.57;;;4.77;;
7961;SDS011;4026;43.652;24.906;2024-01-16T02:35:43;5.87;;;4.03;;
7961;SDS011;4026;43.652;24.906;2024-01-16T02:38:10;7.13;;;4.80;;
7961;SDS011;4026;43.652;24.906;2024-01-16T02:40:38;12.23;;;5.40;;
7961;SDS011;4026;43.652;24.906;2024-01-16T02:43:05;5.60;;;3.70;;
7961;SDS011;4026;43.652;24.906;2024-01-16T02:45:33;8.97;;;4.00;;
7961;SDS011;4026;43.652;24.906;2024-01-16T02:48:00;7.13;;;4.27;;
7961;SDS011;4026;43.652;24.906;2024-01-16T02:50:28;7.17;;;4.03;;
7961;SDS011;4026;43.652;24.906;2024-01-16T02:52:55;9.20;;;4.90;;
7961;SDS011;4026;43.652;24.906;2024-01-16T02:55:22;8.40;;;4.50;;
7961;SDS011;4026;43.652;24.906;2024-01-16T02:57:50;4.80;;;3.50;;
7961;SDS011;4026;43.652;24.906;2024-01-16T03:00:17;6.87;;;4.00;;
7961;SDS011;4026;43.652;24.906;2024-01-16T03:02:44;5.50;;;4.03;;
7961;SDS011;4026;43.652;24.906;2024-01-16T03:05:11;5.47;;;4.20;;
7961;SDS011;4026;43.652;24.906;2024-01-16T03:07:38;7.73;;;5.80;;
7961;SDS011;4026;43.652;24.906;2024-01-16T03:10:05;5.90;;;4.77;;
7961;SDS011;4026;43.652;24.906;2024-01-16T03:12:32;6.53;;;4.00;;
7961;SDS011;4026;43.652;24.906;2024-01-16T03:15:01;5.47;;;4.00;;
7961;SDS011;4026;43.652;24.906;2024-01-16T03:17:28;8.67;;;5.33;;
7961;SDS011;4026;43.652;24.906;2024-01-16T03:19:54;8.47;;;5.00;;
7961;SDS011;4026;43.652;24.906;2024-01-16T03:22:21;4.97;;;3.20;;
7961;SDS011;4026;43.652;24.906;2024-01-16T03:24:49;8.70;;;5.10;;
7961;SDS011;4026;43.652;24.906;2024-01-16T03:27:16;5.53;;;4.03;;
7961;SDS011;4026;43.652;24.906;2024-01-16T03:29:43;9.73;;;4.77;;
7961;SDS011;4026;43.652;24.906;2024-01-16T03:32:11;6.73;;;3.97;;
7961;SDS011;4026;43.652;24.906;2024-01-16T03:34:38;6.83;;;3.40;;
7961;SDS011;4026;43.652;24.906;2024-01-16T03:37:05;4.67;;;4.07;;
7961;SDS011;4026;43.652;24.906;2024-01-16T03:39:32;5.70;;;3.97;;
7961;SDS011;4026;43.652;24.906;2024-01-16T03:41:59;6.23;;;3.93;;
7961;SDS011;4026;43.652;24.906;2024-01-16T03:44:25;8.97;;;4.53;;
7961;SDS011;4026;43.652;24.906;2024-01-16T03:46:52;5.63;;;3.93;;
7961;SDS011;4026;43.652;24.906;2024-01-16T03:49:21;6.30;;;5.07;;
7961;SDS011;4026;43.652;24.906;2024-01-16T03:51:48;7.20;;;3.70;;
7961;SDS011;4026;43.652;24.906;2024-01-16T03:54:15;8.10;;;3.60;;
7961;SDS011;4026;43.652;24.906;2024-01-16T03:56:41;5.93;;;5.10;;
7961;SDS011;4026;43.652;24.906;2024-01-16T03:59:08;8.93;;;3.97;;
7961;SDS011;4026;43.652;24.906;2024-01-16T04:01:35;6.00;;;4.10;;
7961;SDS011;4026;43.652;24.906;2024-01-16T04:04:02;11.97;;;5.13;;
7961;SDS011;4026;43.652;24.906;2024-01-16T04:06:32;7.57;;;3.90;;
7961;SDS011;4026;43.652;24.906;2024-01-16T04:08:59;9.13;;;4.23;;
7961;SDS011;4026;43.652;24.906;2024-01-16T04:11:26;7.67;;;3.63;;
7961;SDS011;4026;43.652;24.906;2024-01-16T04:13:53;5.83;;;4.10;;
7961;SDS011;4026;43.652;24.906;2024-01-16T04:16:20;8.20;;;3.73;;
7961;SDS011;4026;43.652;24.906;2024-01-16T04:18:46;3.87;;;2.70;;
7961;SDS011;4026;43.652;24.906;2024-01-16T04:21:13;7.50;;;3.20;;
7961;SDS011;4026;43.652;24.906;2024-01-16T04:23:42;5.53;;;3.33;;
7961;SDS011;4026;43.652;24.906;2024-01-16T04:26:09;4.57;;;2.93;;
7961;SDS011;4026;43.652;24.906;2024-01-16T04:28:36;4.97;;;2.77;;
7961;SDS011;4026;43.652;24.906;2024-01-16T04:31:03;3.20;;;2.27;;
7961;SDS011;4026;43.652;24.906;2024-01-16T04:33:30;2.80;;;2.20;;
7961;SDS011;4026;43.652;24.906;2024-01-16T04:35:57;7.47;;;4.07;;
7961;SDS011;4026;43.652;24.906;2024-01-16T04:38:24;8.60;;;3.23;;
7961;SDS011;4026;43.652;24.906;2024-01-16T04:40:52;4.00;;;3.00;;
7961;SDS011;4026;43.652;24.906;2024-01-16T04:43:19;3.37;;;2.73;;
7961;SDS011;4026;43.652;24.906;2024-01-16T04:45:46;5.20;;;3.03;;
7961;SDS011;4026;43.652;24.906;2024-01-16T04:48:13;5.43;;;3.00;;
7961;SDS011;4026;43.652;24.906;2024-01-16T04:50:39;7.60;;;2.93;;
7961;SDS011;4026;43.652;24.906;2024-01-16T04:53:06;6.77;;;3.03;;
7961;SDS011;4026;43.652;24.906;2024-01-16T04:55:33;1.47;;;1.37;;
7961;SDS011;4026;43.652;24.906;2024-01-16T04:58:01;3.90;;;2.40;;
7961;SDS011;4026;43.652;24.906;2024-01-16T05:00:29;4.17;;;2.50;;
7961;SDS011;4026;43.652;24.906;2024-01-16T05:02:55;2.13;;;1.63;;
7961;SDS011;4026;43.652;24.906;2024-01-16T05:05:22;1.40;;;1.03;;
7961;SDS011;4026;43.652;24.906;2024-01-16T05:07:49;2.73;;;1.90;;
7961;SDS011;4026;43.652;24.906;2024-01-16T05:10:16;2.70;;;2.33;;
7961;SDS011;4026;43.652;24.906;2024-01-16T05:12:43;2.73;;;2.10;;
7961;SDS011;4026;43.652;24.906;2024-01-16T05:15:11;4.63;;;2.43;;
7961;SDS011;4026;43.652;24.906;2024-01-16T05:17:38;2.03;;;1.70;;
7961;SDS011;4026;43.652;24.906;2024-01-16T05:20:05;2.03;;;1.50;;
7961;SDS011;4026;43.652;24.906;2024-01-16T05:22:33;1.80;;;1.70;;
7961;SDS011;4026;43.652;24.906;2024-01-16T05:25:00;2.17;;;1.93;;
7961;SDS011;4026;43.652;24.906;2024-01-16T05:27:26;4.77;;;2.57;;
7961;SDS011;4026;43.652;24.906;2024-01-16T05:29:53;3.67;;;1.73;;
7961;SDS011;4026;43.652;24.906;2024-01-16T05:32:22;3.97;;;2.10;;
7961;SDS011;4026;43.652;24.906;2024-01-16T05:34:50;4.70;;;3.10;;
7961;SDS011;4026;43.652;24.906;2024-01-16T05:37:16;2.43;;;1.83;;
7961;SDS011;4026;43.652;24.906;2024-01-16T05:39:43;1.53;;;1.43;;
7961;SDS011;4026;43.652;24.906;2024-01-16T05:42:11;1.60;;;1.30;;
7961;SDS011;4026;43.652;24.906;2024-01-16T05:44:37;1.80;;;1.43;;
7961;SDS011;4026;43.652;24.906;2024-01-16T05:47:04;1.63;;;1.53;;
7961;SDS011;4026;43.652;24.906;2024-01-16T05:49:33;1.40;;;1.03;;
7961;SDS011;4026;43.652;24.906;2024-01-16T05:51:59;3.80;;;2.03;;
7961;SDS011;4026;43.652;24.906;2024-01-16T05:54:27;1.30;;;1.20;;
7961;SDS011;4026;43.652;24.906;2024-01-16T05:56:54;2.20;;;1.60;;
7961;SDS011;4026;43.652;24.906;2024-01-16T05:59:20;1.67;;;1.37;;
7961;SDS011;4026;43.652;24.906;2024-01-16T06:01:47;1.80;;;1.20;;
7961;SDS011;4026;43.652;24.906;2024-01-16T06:04:15;1.60;;;1.37;;
7961;SDS011;4026;43.652;24.906;2024-01-16T06:06:43;1.37;;;1.13;;
7961;SDS011;4026;43.652;24.906;2024-01-16T06:09:12;2.53;;;2.00;;
7961;SDS011;4026;43.652;24.906;2024-01-16T06:11:40;2.07;;;1.23;;
7961;SDS011;4026;43.652;24.906;2024-01-16T06:14:07;1.30;;;0.83;;
7961;SDS011;4026;43.652;24.906;2024-01-16T06:16:34;1.53;;;1.40;;
7961;SDS011;4026;43.652;24.906;2024-01-16T06:19:01;1.90;;;1.37;;
7961;SDS011;4026;43.652;24.906;2024-01-16T06:21:28;3.67;;;1.50;;
7961;SDS011;4026;43.652;24.906;2024-01-16T06:23:56;1.63;;;1.17;;
7961;SDS011;4026;43.652;24.906;2024-01-16T06:26:23;0.60;;;0.60;;
7961;SDS011;4026;43.652;24.906;2024-01-16T06:28:50;0.90;;;0.80;;
7961;SDS011;4026;43.652;24.906;2024-01-16T06:31:16;0.90;;;0.50;;
7961;SDS011;4026;43.652;24.906;2024-01-16T06:33:43;0.50;;;0.50;;
7961;SDS011;4026;43.652;24.906;2024-01-16T06:36:10;0.53;;;0.53;;
7961;SDS011;4026;43.652;24.906;2024-01-16T06:38:38;0.40;;;0.37;;
7961;SDS011;4026;43.652;24.906;2024-01-16T06:41:07;0.50;;;0.50;;
7961;SDS011;4026;43.652;24.906;2024-01-16T06:43:34;0.60;;;0.60;;
7961;SDS011;4026;43.652;24.906;2024-01-16T06:46:01;0.40;;;0.40;;
7961;SDS011;4026;43.652;24.906;2024-01-16T06:48:28;0.47;;;0.47;;
7961;SDS011;4026;43.652;24.906;2024-01-16T06:50:55;0.20;;;0.20;;
7961;SDS011;4026;43.652;24.906;2024-01-16T06:53:22;1.80;;;1.07;;
7961;SDS011;4026;43.652;24.906;2024-01-16T06:55:49;0.60;;;0.50;;
7961;SDS011;4026;43.652;24.906;2024-01-16T06:58:17;0.40;;;0.40;;
7961;SDS011;4026;43.652;24.906;2024-01-16T07:00:44;0.50;;;0.50;;
7961;SDS011;4026;43.652;24.906;2024-01-16T07:03:11;0.30;;;0.30;;
7961;SDS011;4026;43.652;24.906;2024-01-16T07:05:39;0.27;;;0.27;;
7961;SDS011;4026;43.652;24.906;2024-01-16T07:08:06;0.40;;;0.40;;
7961;SDS011;4026;43.652;24.906;2024-01-16T07:10:33;0.60;;;0.60;;
7961;SDS011;4026;43.652;24.906;2024-01-16T07:13:00;0.40;;;0.40;;
7961;SDS011;4026;43.652;24.906;2024-01-16T07:15:29;1.63;;;0.50;;
7961;SDS011;4026;43.652;24.906;2024-01-16T07:17:56;0.30;;;0.30;;
7961;SDS011;4026;43.652;24.906;2024-01-16T07:20:22;0.30;;;0.30;;
7961;SDS011;4026;43.652;24.906;2024-01-16T07:22:49;0.43;;;0.30;;
7961;SDS011;4026;43.652;24.906;2024-01-16T07:25:17;0.70;;;0.60;;
7961;SDS011;4026;43.652;24.906;2024-01-16T07:27:43;1.67;;;0.57;;
7961;SDS011;4026;43.652;24.906;2024-01-16T07:30:13;0.43;;;0.43;;
7961;SDS011;4026;43.652;24.906;2024-01-16T07:32:42;0.50;;;0.47;;
7961;SDS011;4026;43.652;24.906;2024-01-16T07:35:09;0.50;;;0.50;;
7961;SDS011;4026;43.652;24.906;2024-01-16T07:37:35;0.77;;;0.77;;
7961;SDS011;4026;43.652;24.906;2024-01-16T07:40:02;0.87;;;0.60;;
7961;SDS011;4026;43.652;24.906;2024-01-16T07:42:31;0.47;;;0.47;;
7961;SDS011;4026;43.652;24.906;2024-01-16T07:44:59;0.70;;;0.70;;
7961;SDS011;4026;43.652;24.906;2024-01-16T07:47:26;0.90;;;0.80;;
7961;SDS011;4026;43.652;24.906;2024-01-16T07:49:54;2.83;;;1.33;;
7961;SDS011;4026;43.652;24.906;2024-01-16T07:52:21;1.30;;;0.90;;
7961;SDS011;4026;43.652;24.906;2024-01-16T07:54:48;1.20;;;0.77;;
7961;SDS011;4026;43.652;24.906;2024-01-16T07:57:15;0.43;;;0.43;;
7961;SDS011;4026;43.652;24.906;2024-01-16T07:59:41;0.47;;;0.47;;
7961;SDS011;4026;43.652;24.906;2024-01-16T08:02:08;0.90;;;0.87;;
7961;SDS011;4026;43.652;24.906;2024-01-16T08:04:35;0.93;;;0.80;;
7961;SDS011;4026;43.652;24.906;2024-01-16T08:07:04;1.43;;;0.60;;
7961;SDS011;4026;43.652;24.906;2024-01-16T08:09:30;2.57;;;1.10;;
7961;SDS011;4026;43.652;24.906;2024-01-16T08:11:57;0.73;;;0.73;;
7961;SDS011;4026;43.652;24.906;2024-01-16T08:14:26;1.30;;;1.20;;
7961;SDS011;4026;43.652;24.906;2024-01-16T08:16:54;0.70;;;0.70;;
7961;SDS011;4026;43.652;24.906;2024-01-16T08:19:20;0.87;;;0.73;;
7961;SDS011;4026;43.652;24.906;2024-01-16T08:21:47;0.60;;;0.60;;
7961;SDS011;4026;43.652;24.906;2024-01-16T08:24:15;0.47;;;0.47;;
7961;SDS011;4026;43.652;24.906;2024-01-16T08:26:42;1.00;;;0.90;;
7961;SDS011;4026;43.652;24.906;2024-01-16T08:29:09;0.90;;;0.70;;
7961;SDS011;4026;43.652;24.906;2024-01-16T08:31:36;1.20;;;0.73;;
7961;SDS011;4026;43.652;24.906;2024-01-16T08:34:03;0.67;;;0.60;;
7961;SDS011;4026;43.652;24.906;2024-01-16T08:36:29;0.77;;;0.77;;
7961;SDS011;4026;43.652;24.906;2024-01-16T08:38:56;1.97;;;1.03;;
7961;SDS011;4026;43.652;24.906;2024-01-16T08:41:24;0.50;;;0.50;;
7961;SDS011;4026;43.652;24.906;2024-01-16T08:43:51;2.00;;;1.20;;
7961;SDS011;4026;43.652;24.906;2024-01-16T08:46:19;1.93;;;1.17;;
7961;SDS011;4026;43.652;24.906;2024-01-16T08:48:46;1.60;;;0.87;;
7961;SDS011;4026;43.652;24.906;2024-01-16T08:51:13;1.57;;;0.80;;
7961;SDS011;4026;43.652;24.906;2024-01-16T08:53:40;1.07;;;0.93;;
7961;SDS011;4026;43.652;24.906;2024-01-16T08:56:07;1.03;;;0.60;;
7961;SDS011;4026;43.652;24.906;2024-01-16T08:58:35;1.27;;;0.90;;
7961;SDS011;4026;43.652;24.906;2024-01-16T09:01:03;2.10;;;1.53;;
7961;SDS011;4026;43.652;24.906;2024-01-16T09:03:31;1.67;;;1.07;;
7961;SDS011;4026;43.652;24.906;2024-01-16T09:05:58;1.50;;;1.17;;
7961;SDS011;4026;43.652;24.906;2024-01-16T09:08:25;0.97;;;0.90;;
7961;SDS011;4026;43.652;24.906;2024-01-16T09:10:53;1.33;;;1.10;;
7961;SDS011;4026;43.652;24.906;2024-01-16T09:13:19;2.10;;;1.57;;
7961;SDS011;4026;43.652;24.906;2024-01-16T09:15:49;1.17;;;0.77;;
7961;SDS011;4026;43.652;24.906;2024-01-16T09:18:16;1.53;;;1.30;;
7961;SDS011;4026;43.652;24.906;2024-01-16T09:20:43;2.23;;;1.67;;
7961;SDS011;4026;43.652;24.906;2024-01-16T09:23:10;2.33;;;1.20;;
7961;SDS011;4026;43.652;24.906;2024-01-16T09:25:37;1.03;;;0.90;;
7961;SDS011;4026;43.652;24.906;2024-01-16T09:28:04;4.13;;;1.50;;
7961;SDS011;4026;43.652;24.906;2024-01-16T09:30:31;1.43;;;1.17;;
7961;SDS011;4026;43.652;24.906;2024-01-16T09:33:00;0.70;;;0.70;;
7961;SDS011;4026;43.652;24.906;2024-01-16T09:35:28;3.93;;;1.77;;
7961;SDS011;4026;43.652;24.906;2024-01-16T09:37:55;0.70;;;0.70;;
7961;SDS011;4026;43.652;24.906;2024-01-16T09:40:22;1.20;;;0.50;;
7961;SDS011;4026;43.652;24.906;2024-01-16T09:42:48;1.07;;;0.97;;
7961;SDS011;4026;43.652;24.906;2024-01-16T09:45:17;2.00;;;1.20;;
7961;SDS011;4026;43.652;24.906;2024-01-16T09:47:47;1.77;;;0.90;;
7961;SDS011;4026;43.652;24.906;2024-01-16T09:50:17;0.80;;;0.80;;
7961;SDS011;4026;43.652;24.906;2024-01-16T09:52:45;2.57;;;1.70;;
7961;SDS011;4026;43.652;24.906;2024-01-16T09:55:12;2.53;;;1.60;;
7961;SDS011;4026;43.652;24.906;2024-01-16T09:57:40;3.43;;;1.13;;
7961;SDS011;4026;43.652;24.906;2024-01-16T10:00:08;1.60;;;1.10;;
7961;SDS011;4026;43.652;24.906;2024-01-16T10:02:38;0.70;;;0.70;;
7961;SDS011;4026;43.652;24.906;2024-01-16T10:05:06;1.57;;;1.00;;
7961;SDS011;4026;43.652;24.906;2024-01-16T10:07:36;2.23;;;1.67;;
7961;SDS011;4026;43.652;24.906;2024-01-16T10:10:05;2.80;;;1.17;;
7961;SDS011;4026;43.652;24.906;2024-01-16T10:12:33;1.27;;;1.17;;
7961;SDS011;4026;43.652;24.906;2024-01-16T10:15:00;1.43;;;1.17;;
7961;SDS011;4026;43.652;24.906;2024-01-16T10:17:36;1.30;;;0.77;;
7961;SDS011;4026;43.652;24.906;2024-01-16T10:20:04;1.00;;;0.90;;
7961;SDS011;4026;43.652;24.906;2024-01-16T10:22:31;1.40;;;1.30;;
7961;SDS011;4026;43.652;24.906;2024-01-16T10:25:06;0.70;;;0.70;;
7961;SDS011;4026;43.652;24.906;2024-01-16T10:27:35;0.67;;;0.67;;
7961;SDS011;4026;43.652;24.906;2024-01-16T10:30:02;1.90;;;1.13;;
7961;SDS011;4026;43.652;24.906;2024-01-16T10:32:30;1.30;;;0.90;;
7961;SDS011;4026;43.652;24.906;2024-01-16T10:35:04;1.53;;;0.77;;
7961;SDS011;4026;43.652;24.906;2024-01-16T10:37:43;1.50;;;0.80;;
7961;SDS011;4026;43.652;24.906;2024-01-16T10:40:12;1.17;;;0.97;;
7961;SDS011;4026;43.652;24.906;2024-01-16T10:42:42;2.87;;;1.30;;
7961;SDS011;4026;43.652;24.906;2024-01-16T10:45:11;1.43;;;1.33;;
7961;SDS011;4026;43.652;24.906;2024-01-16T10:47:43;1.20;;;0.90;;
7961;SDS011;4026;43.652;24.906;2024-01-16T10:50:11;1.23;;;0.87;;
7961;SDS011;4026;43.652;24.906;2024-01-16T10:52:39;1.63;;;1.43;;
7961;SDS011;4026;43.652;24.906;2024-01-16T10:55:18;2.00;;;1.10;;
7961;SDS011;4026;43.652;24.906;2024-01-16T10:57:48;1.87;;;1.43;;
7961;SDS011;4026;43.652;24.906;2024-01-16T11:00:16;1.47;;;1.37;;
7961;SDS011;4026;43.652;24.906;2024-01-16T11:02:48;1.10;;;1.00;;
7961;SDS011;4026;43.652;24.906;2024-01-16T11:05:17;1.20;;;1.10;;
7961;SDS011;4026;43.652;24.906;2024-01-16T11:07:45;1.50;;;0.83;;
7961;SDS011;4026;43.652;24.906;2024-01-16T11:10:15;1.37;;;1.20;;
7961;SDS011;4026;43.652;24.906;2024-01-16T11:12:43;0.90;;;0.80;;
7961;SDS011;4026;43.652;24.906;2024-01-16T11:15:11;1.00;;;0.93;;
7961;SDS011;4026;43.652;24.906;2024-01-16T11:17:38;4.07;;;1.33;;
7961;SDS011;4026;43.652;24.906;2024-01-16T11:20:08;2.57;;;1.53;;
7961;SDS011;4026;43.652;24.906;2024-01-16T11:22:37;2.83;;;1.53;;
7961;SDS011;4026;43.652;24.906;2024-01-16T11:25:09;1.50;;;1.37;;
7961;SDS011;4026;43.652;24.906;2024-01-16T11:27:38;3.70;;;1.80;;
7961;SDS011;4026;43.652;24.906;2024-01-16T11:30:06;2.07;;;1.70;;
7961;SDS011;4026;43.652;24.906;2024-01-16T11:32:34;1.90;;;1.50;;
7961;SDS011;4026;43.652;24.906;2024-01-16T11:35:03;1.40;;;1.00;;
7961;SDS011;4026;43.652;24.906;2024-01-16T11:37:31;2.37;;;1.63;;
7961;SDS011;4026;43.652;24.906;2024-01-16T11:42:51;1.87;;;1.37;;
7961;SDS011;4026;43.652;24.906;2024-01-16T11:48:15;1.63;;;1.23;;
7961;SDS011;4026;43.652;24.906;2024-01-16T11:50:43;1.37;;;1.13;;
7961;SDS011;4026;43.652;24.906;2024-01-16T11:53:10;1.57;;;1.27;;
7961;SDS011;4026;43.652;24.906;2024-01-16T11:55:42;1.23;;;0.80;;
7961;SDS011;4026;43.652;24.906;2024-01-16T11:58:30;1.43;;;1.00;;
7961;SDS011;4026;43.652;24.906;2024-01-16T12:01:11;1.83;;;1.07;;
7961;SDS011;4026;43.652;24.906;2024-01-16T12:03:38;2.27;;;1.53;;
7961;SDS011;4026;43.652;24.906;2024-01-16T12:06:05;1.57;;;1.10;;
7961;SDS011;4026;43.652;24.906;2024-01-16T12:08:34;2.20;;;1.67;;
7961;SDS011;4026;43.652;24.906;2024-01-16T12:11:01;2.03;;;1.40;;
7961;SDS011;4026;43.652;24.906;2024-01-16T12:13:30;1.67;;;1.20;;
7961;SDS011;4026;43.652;24.906;2024-01-16T12:16:01;1.37;;;1.00;;
7961;SDS011;4026;43.652;24.906;2024-01-16T12:18:29;1.50;;;1.00;;
7961;SDS011;4026;43.652;24.906;2024-01-16T12:20:56;1.77;;;0.80;;
7961;SDS011;4026;43.652;24.906;2024-01-16T12:23:23;1.83;;;1.47;;
7961;SDS011;4026;43.652;24.906;2024-01-16T12:25:51;1.13;;;1.03;;
7961;SDS011;4026;43.652;24.906;2024-01-16T12:28:20;1.13;;;0.67;;
7961;SDS011;4026;43.652;24.906;2024-01-16T12:30:50;1.33;;;1.23;;
7961;SDS011;4026;43.652;24.906;2024-01-16T12:33:20;1.70;;;1.30;;
7961;SDS011;4026;43.652;24.906;2024-01-16T12:35:48;1.00;;;0.87;;
7961;SDS011;4026;43.652;24.906;2024-01-16T12:38:15;2.33;;;1.03;;
7961;SDS011;4026;43.652;24.906;2024-01-16T12:40:44;2.30;;;1.17;;
7961;SDS011;4026;43.652;24.906;2024-01-16T12:43:15;1.30;;;0.87;;
7961;SDS011;4026;43.652;24.906;2024-01-16T12:45:43;3.13;;;1.53;;
7961;SDS011;4026;43.652;24.906;2024-01-16T12:48:11;1.87;;;1.07;;
7961;SDS011;4026;43.652;24.906;2024-01-16T12:50:39;1.20;;;0.90;;
7961;SDS011;4026;43.652;24.906;2024-01-16T12:53:06;2.20;;;1.27;;
7961;SDS011;4026;43.652;24.906;2024-01-16T12:55:34;1.47;;;1.23;;
7961;SDS011;4026;43.652;24.906;2024-01-16T12:58:12;1.20;;;0.80;;
7961;SDS011;4026;43.652;24.906;2024-01-16T13:00:42;1.40;;;1.23;;
7961;SDS011;4026;43.652;24.906;2024-01-16T13:03:15;0.83;;;0.83;;
7961;SDS011;4026;43.652;24.906;2024-01-16T13:05:43;1.70;;;0.93;;
7961;SDS011;4026;43.652;24.906;2024-01-16T13:08:17;1.10;;;1.00;;
7961;SDS011;4026;43.652;24.906;2024-01-16T13:10:44;1.27;;;1.17;;
7961;SDS011;4026;43.652;24.906;2024-01-16T13:13:12;1.00;;;0.87;;
7961;SDS011;4026;43.652;24.906;2024-01-16T13:15:40;1.30;;;1.10;;
7961;SDS011;4026;43.652;24.906;2024-01-16T13:18:18;1.10;;;1.00;;
7961;SDS011;4026;43.652;24.906;2024-01-16T13:20:47;1.30;;;0.90;;
7961;SDS011;4026;43.652;24.906;2024-01-16T13:23:14;1.60;;;1.07;;
7961;SDS011;4026;43.652;24.906;2024-01-16T13:25:42;1.10;;;1.00;;
7961;SDS011;4026;43.652;24.906;2024-01-16T13:28:10;2.50;;;1.10;;
7961;SDS011;4026;43.652;24.906;2024-01-16T13:30:37;1.13;;;1.00;;
7961;SDS011;4026;43.652;24.906;2024-01-16T13:33:04;1.00;;;0.90;;
7961;SDS011;4026;43.652;24.906;2024-01-16T13:35:33;1.17;;;0.90;;
7961;SDS011;4026;43.652;24.906;2024-01-16T13:38:02;1.53;;;1.27;;
7961;SDS011;4026;43.652;24.906;2024-01-16T13:40:30;1.23;;;1.13;;
7961;SDS011;4026;43.652;24.906;2024-01-16T13:42:57;1.17;;;1.07;;
7961;SDS011;4026;43.652;24.906;2024-01-16T13:45:24;3.77;;;1.57;;
7961;SDS011;4026;43.652;24.906;2024-01-16T13:47:50;1.37;;;0.93;;
7961;SDS011;4026;43.652;24.906;2024-01-16T13:50:17;0.97;;;0.90;;
7961;SDS011;4026;43.652;24.906;2024-01-16T13:52:45;1.00;;;0.90;;
7961;SDS011;4026;43.652;24.906;2024-01-16T13:55:13;1.07;;;0.90;;
7961;SDS011;4026;43.652;24.906;2024-01-16T13:57:40;2.07;;;1.20;;
7961;SDS011;4026;43.652;24.906;2024-01-16T14:00:08;1.27;;;1.00;;
7961;SDS011;4026;43.652;24.906;2024-01-16T14:02:38;1.00;;;0.90;;
7961;SDS011;4026;43.652;24.906;2024-01-16T14:05:06;0.70;;;0.70;;
7961;SDS011;4026;43.652;24.906;2024-01-16T14:07:35;1.13;;;0.83;;
7961;SDS011;4026;43.652;24.906;2024-01-16T14:10:05;2.00;;;0.70;;
7961;SDS011;4026;43.652;24.906;2024-01-16T14:12:32;1.10;;;0.73;;
7961;SDS011;4026;43.652;24.906;2024-01-16T14:15:00;1.20;;;1.10;;
7961;SDS011;4026;43.652;24.906;2024-01-16T14:17:29;1.57;;;0.90;;
7961;SDS011;4026;43.652;24.906;2024-01-16T14:19:56;1.20;;;1.10;;
7961;SDS011;4026;43.652;24.906;2024-01-16T14:22:23;2.17;;;1.43;;
7961;SDS011;4026;43.652;24.906;2024-01-16T14:24:49;1.20;;;1.10;;
7961;SDS011;4026;43.652;24.906;2024-01-16T14:27:18;0.90;;;0.87;;
7961;SDS011;4026;43.652;24.906;2024-01-16T14:29:45;1.03;;;0.93;;
7961;SDS011;4026;43.652;24.906;2024-01-16T14:32:12;1.10;;;0.87;;
7961;SDS011;4026;43.652;24.906;2024-01-16T14:34:38;1.60;;;1.00;;
7961;SDS011;4026;43.652;24.906;2024-01-16T14:37:05;0.93;;;0.90;;
7961;SDS011;4026;43.652;24.906;2024-01-16T14:39:32;0.97;;;0.67;;
7961;SDS011;4026;43.652;24.906;2024-01-16T14:42:01;2.00;;;1.00;;
7961;SDS011;4026;43.652;24.906;2024-01-16T14:44:29;1.17;;;1.07;;
7961;SDS011;4026;43.652;24.906;2024-01-16T14:46:56;0.57;;;0.57;;
7961;SDS011;4026;43.652;24.906;2024-01-16T14:49:23;0.70;;;0.70;;
7961;SDS011;4026;43.652;24.906;2024-01-16T14:51:56;0.63;;;0.60;;
7961;SDS011;4026;43.652;24.906;2024-01-16T14:54:23;1.00;;;0.67;;
7961;SDS011;4026;43.652;24.906;2024-01-16T14:56:50;1.03;;;0.90;;
7961;SDS011;4026;43.652;24.906;2024-01-16T14:59:17;1.60;;;1.13;;
7961;SDS011;4026;43.652;24.906;2024-01-16T15:01:45;1.27;;;0.90;;
7961;SDS011;4026;43.652;24.906;2024-01-16T15:04:12;1.27;;;0.90;;
7961;SDS011;4026;43.652;24.906;2024-01-16T15:06:39;0.70;;;0.70;;
7961;SDS011;4026;43.652;24.906;2024-01-16T15:09:06;2.53;;;1.70;;